Time;durP1;ratioP1;P1;durP2;ratioP2;P2;SDS_P1;SDS_P2;PMS_P1;PMS_P2;Temp;Humidity;BMP_temperature;BMP_pressure;BME280_temperature;BME280_humidity;BME280_pressure;Samples;Min_cycle;Max_cycle;Signal;HPM_P1;HPM_P2
2023/04/01 00:00:55;;;;;;;5.90;2.90;;;;;;;14.58;48.93;98738.72;4994639;28;20042;-78
2023/04/01 00:03:22;;;;;;;8.93;3.47;;;;;;;14.55;49.17;98731.22;4994747;28;20076;-78
2023/04/01 00:05:48;;;;;;;3.40;2.30;;;;;;;14.39;49.32;98713.19;4994473;28;20022;-78
2023/04/01 00:08:14;;;;;;;4.72;2.30;;;;;;;14.11;49.36;98677.34;4994426;28;20026;-78
2023/04/01 00:10:40;;;;;;;4.28;2.83;;;;;;;14.11;49.30;98676.53;4994474;28;20077;-78
2023/04/01 00:13:06;;;;;;;6.90;3.00;;;;;;;14.50;49.64;98737.19;4993286;28;20034;-78
2023/04/01 00:15:32;;;;;;;5.60;2.50;;;;;;;14.50;49.77;98733.72;4994163;28;20035;-78
2023/04/01 00:17:58;;;;;;;6.85;3.05;;;;;;;14.12;49.70;98671.03;4994035;28;20411;-78
2023/04/01 00:20:24;;;;;;;3.58;2.55;;;;;;;14.50;49.91;98736.38;5008698;28;20077;-78
2023/04/01 00:22:50;;;;;;;5.32;3.05;;;;;;;14.25;49.86;98697.41;4994159;28;20043;-78
2023/04/01 00:25:16;;;;;;;5.43;3.70;;;;;;;14.16;49.88;98682.00;4992931;28;20081;-78
2023/04/01 00:27:41;;;;;;;3.45;2.55;;;;;;;13.85;49.86;98646.59;5009227;28;20034;-78
2023/04/01 00:30:07;;;;;;;5.60;3.05;;;;;;;14.36;49.98;98705.69;4994082;28;20042;-78
2023/04/01 00:32:33;;;;;;;6.80;2.97;;;;;;;14.08;49.99;98653.09;4993957;28;20026;-78
2023/04/01 00:34:59;;;;;;;3.75;2.47;;;;;;;14.20;50.32;98681.34;4993964;28;20030;-78
2023/04/01 00:37:26;;;;;;;6.38;2.70;;;;;;;14.40;50.33;98736.06;5009066;28;20036;-78
2023/04/01 00:39:52;;;;;;;3.35;2.55;;;;;;;14.18;50.19;98671.97;4993969;28;20527;-78
2023/04/01 00:42:17;;;;;;;5.93;3.17;;;;;;;14.28;50.32;98696.16;4994029;28;20404;-78
2023/04/01 00:44:45;;;;;;;4.93;2.78;;;;;;;14.28;50.41;98685.53;4993871;28;20026;-78
2023/04/01 00:47:11;;;;;;;6.65;2.78;;;;;;;14.37;50.54;98700.13;4993927;28;20050;-78
2023/04/01 00:49:41;;;;;;;4.70;2.72;;;;;;;14.36;50.62;98697.72;4993809;28;20033;-78
2023/04/01 00:52:10;;;;;;;4.65;3.00;;;;;;;14.34;50.61;98694.47;4993486;28;20026;-78
2023/04/01 00:54:38;;;;;;;5.95;2.60;;;;;;;13.68;50.49;98603.13;4993387;28;20026;-78
2023/04/01 00:57:09;;;;;;;5.53;2.60;;;;;;;14.21;50.78;98676.84;4993417;28;20097;-78
2023/04/01 00:59:45;;;;;;;6.07;2.70;;;;;;;14.32;50.87;98708.78;4993352;28;20049;-78
2023/04/01 01:02:14;;;;;;;5.13;2.65;;;;;;;14.34;50.69;98689.97;4993886;28;20058;-78
2023/04/01 01:04:39;;;;;;;6.00;2.95;;;;;;;14.36;50.47;98703.84;4994458;28;20022;-78
2023/04/01 01:07:08;;;;;;;6.80;3.05;;;;;;;14.35;50.58;98696.91;4996815;28;20030;-78
2023/04/01 01:09:48;;;;;;;5.45;3.28;;;;;;;14.37;50.68;98696.69;4994950;28;20161;-78
2023/04/01 01:13:05;;;;;;;4.80;2.80;;;;;;;14.32;50.77;98700.00;4994024;28;20033;-78
2023/04/01 01:15:44;;;;;;;5.95;2.97;;;;;;;14.13;50.84;98685.94;4984783;28;20034;-78
2023/04/01 01:18:16;;;;;;;6.22;3.05;;;;;;;14.17;50.80;98679.13;4993359;28;20038;-78
2023/04/01 01:21:02;;;;;;;6.13;2.92;;;;;;;14.28;50.94;98701.47;4993327;28;20109;-78
2023/04/01 01:23:30;;;;;;;4.82;2.60;;;;;;;14.22;50.89;98700.53;4993107;28;20028;-78
2023/04/01 01:26:33;;;;;;;8.95;3.55;;;;;;;14.18;51.34;98711.81;4992898;28;20018;-78
2023/04/01 01:29:02;;;;;;;5.15;3.08;;;;;;;14.11;51.53;98701.22;4993092;28;20084;-78
2023/04/01 01:32:01;;;;;;;5.03;3.42;;;;;;;14.09;51.51;98700.63;4992121;28;20022;-78
2023/04/01 01:34:32;;;;;;;4.88;2.95;;;;;;;14.07;51.37;98704.56;4992957;28;20462;-78
2023/04/01 01:37:01;;;;;;;7.90;4.03;;;;;;;14.04;51.24;98699.69;4992947;28;20057;-78
2023/04/01 01:39:31;;;;;;;11.27;4.20;;;;;;;12.98;51.52;98546.88;4992826;28;20033;-78
2023/04/01 01:42:01;;;;;;;7.07;3.97;;;;;;;14.02;51.36;98696.44;4992753;28;20061;-78
2023/04/01 01:44:30;;;;;;;8.73;4.97;;;;;;;13.86;51.42;98668.63;4992844;28;20023;-78
2023/04/01 01:46:56;;;;;;;5.63;4.03;;;;;;;13.74;51.47;98657.13;4992768;28;20053;-78
2023/04/01 01:49:23;;;;;;;7.90;4.20;;;;;;;13.61;51.35;98640.31;4992444;28;20088;-78
2023/04/01 01:51:48;;;;;;;7.00;4.35;;;;;;;13.46;51.50;98631.09;4992473;28;20054;-78
2023/04/01 01:54:16;;;;;;;7.15;4.38;;;;;;;13.91;51.70;98711.25;4992302;28;20117;-78
2023/04/01 01:56:44;;;;;;;7.03;4.63;;;;;;;13.74;51.86;98687.13;4992359;28;20022;-78
2023/04/01 01:59:13;;;;;;;5.53;4.18;;;;;;;13.49;52.00;98646.56;4992592;28;20039;-78
2023/04/01 02:01:44;;;;;;;6.30;3.70;;;;;;;13.86;51.85;98708.44;4992778;28;20102;-78
2023/04/01 02:04:11;;;;;;;8.20;3.67;;;;;;;13.26;51.73;98618.00;4992717;28;20023;-78
2023/04/01 02:06:40;;;;;;;9.32;4.50;;;;;;;13.74;51.71;98691.63;4992749;28;20022;-78
2023/04/01 02:09:10;;;;;;;9.88;4.00;;;;;;;13.83;51.79;98712.34;4992708;28;20109;-78
2023/04/01 02:11:45;;;;;;;7.72;4.45;;;;;;;13.84;51.68;98716.63;4992706;28;20101;-78
2023/04/01 02:14:31;;;;;;;7.35;4.80;;;;;;;13.68;52.18;98691.47;4992684;28;20022;-78
2023/04/01 02:17:04;;;;;;;8.30;4.80;;;;;;;13.83;51.82;98714.19;4990970;28;20015;-78
2023/04/01 02:19:36;;;;;;;7.38;4.28;;;;;;;13.79;52.10;98703.19;4992235;28;20036;-78
2023/04/01 02:22:03;;;;;;;7.10;4.40;;;;;;;13.74;52.06;98700.41;4992133;28;20041;-78
2023/04/01 02:24:33;;;;;;;7.65;5.00;;;;;;;13.54;51.90;98650.19;4992117;28;20030;-78
2023/04/01 02:26:59;;;;;;;8.15;4.80;;;;;;;13.75;52.34;98693.25;4992312;28;20571;-78
2023/04/01 02:29:25;;;;;;;8.65;5.28;;;;;;;13.77;51.99;98678.72;4992174;28;20113;-78
2023/04/01 02:31:52;;;;;;;16.58;6.07;;;;;;;13.80;51.90;98674.81;4992250;28;20499;-78
2023/04/01 02:34:19;;;;;;;8.45;5.07;;;;;;;13.80;51.94;98678.28;4992059;28;20568;-78
2023/04/01 02:36:46;;;;;;;10.45;5.78;;;;;;;13.43;51.77;98624.38;5006943;28;20026;-78
2023/04/01 02:39:13;;;;;;;10.73;5.45;;;;;;;13.54;51.72;98649.38;4991845;28;20030;-78
2023/04/01 02:41:43;;;;;;;7.63;4.93;;;;;;;13.83;51.99;98682.34;4992461;28;20113;-78
2023/04/01 02:44:10;;;;;;;8.43;4.95;;;;;;;13.83;51.86;98685.00;4996138;28;20037;-78
2023/04/01 02:46:36;;;;;;;7.97;5.30;;;;;;;13.83;51.72;98687.66;4995997;28;20399;-78
2023/04/01 02:49:01;;;;;;;15.32;7.95;;;;;;;13.82;51.62;98676.22;4996098;28;20030;-78
2023/04/01 02:51:27;;;;;;;20.73;10.55;;;;;;;13.77;51.88;98670.78;4996110;28;20058;-78
2023/04/01 02:53:52;;;;;;;18.73;12.27;;;;;;;13.50;51.52;98613.72;4995773;28;20057;-78
2023/04/01 02:56:19;;;;;;;20.65;11.88;;;;;;;12.71;51.40;98495.97;4995859;28;20029;-78
2023/04/01 02:58:45;;;;;;;17.50;11.60;;;;;;;13.64;51.45;98647.03;4995721;28;20022;-78
2023/04/01 03:01:10;;;;;;;18.52;11.27;;;;;;;13.80;51.48;98664.22;4995401;28;20042;-78
2023/04/01 03:03:36;;;;;;;17.83;9.20;;;;;;;13.02;51.58;98540.09;4995573;28;20038;-78
2023/04/01 03:06:12;;;;;;;15.13;9.07;;;;;;;13.77;51.65;98654.84;4995208;28;20053;-78
2023/04/01 03:08:37;;;;;;;11.85;7.60;;;;;;;13.77;51.39;98665.47;4995714;28;20459;-78
2023/04/01 03:11:03;;;;;;;13.32;8.13;;;;;;;13.77;51.43;98668.13;4995581;28;20030;-78
2023/04/01 03:13:29;;;;;;;13.27;6.57;;;;;;;13.75;51.11;98664.88;4995709;28;20032;-78
2023/04/01 03:15:54;;;;;;;67.20;36.00;;;;;;;13.66;51.49;98651.09;4995533;28;20061;-78
2023/04/01 03:18:20;;;;;;;89.40;45.70;;;;;;;13.64;51.40;98652.34;4995504;28;20030;-78
2023/04/01 03:20:45;;;;;;;48.65;27.48;;;;;;;13.64;51.59;98652.34;4995599;28;20036;-78
2023/04/01 03:23:11;;;;;;;26.73;15.75;;;;;;;13.64;51.18;98647.84;4995332;28;20470;-78
2023/04/01 03:25:37;;;;;;;24.63;13.95;;;;;;;13.25;51.54;98584.56;4995276;28;20033;-78
2023/04/01 03:28:02;;;;;;;17.50;11.07;;;;;;;13.55;51.12;98632.44;4995189;28;20028;-78
2023/04/01 03:30:30;;;;;;;16.30;9.82;;;;;;;12.86;51.25;98532.72;4994990;28;20458;-78
2023/04/01 03:32:57;;;;;;;17.45;9.57;;;;;;;13.37;51.49;98611.97;4995217;28;20499;-78
2023/04/01 03:35:23;;;;;;;13.15;8.65;;;;;;;13.30;51.75;98600.63;4995125;28;20407;-78
2023/04/01 03:37:51;;;;;;;15.38;8.13;;;;;;;13.57;51.75;98639.13;4995264;28;20030;-78
2023/04/01 03:40:16;;;;;;;15.13;8.68;;;;;;;12.77;51.74;98518.94;4995116;28;20027;-78
2023/04/01 03:42:42;;;;;;;17.98;9.43;;;;;;;13.56;51.69;98636.72;4995104;28;20041;-78
2023/04/01 03:45:07;;;;;;;14.55;8.57;;;;;;;13.56;51.89;98632.22;4994826;28;20411;-78
2023/04/01 03:47:33;;;;;;;11.20;7.50;;;;;;;12.90;51.79;98531.25;4994834;28;20073;-78
2023/04/01 03:49:58;;;;;;;10.23;7.30;;;;;;;13.58;51.62;98645.25;4994844;28;20041;-78
2023/04/01 03:52:24;;;;;;;13.30;7.43;;;;;;;13.57;51.76;98639.13;4995025;28;20108;-78
2023/04/01 03:54:49;;;;;;;22.48;13.88;;;;;;;13.48;51.81;98624.53;4993624;28;20109;-78
2023/04/01 03:57:15;;;;;;;12.18;7.93;;;;;;;13.57;51.64;98638.34;4994616;28;20019;-78
2023/04/01 03:59:40;;;;;;;9.80;5.82;;;;;;;13.47;51.57;98632.72;4994447;28;20061;-78
2023/04/01 04:02:05;;;;;;;7.22;5.15;;;;;;;13.43;52.13;98645.59;4994596;28;20045;-78
2023/04/01 04:04:31;;;;;;;9.30;5.72;;;;;;;12.80;51.74;98539.69;4994380;28;20061;-78
2023/04/01 04:06:57;;;;;;;9.43;5.60;;;;;;;13.31;51.94;98624.25;4994580;28;20109;-78
2023/04/01 04:09:23;;;;;;;9.23;6.15;;;;;;;13.06;51.91;98591.63;4994412;28;20033;-78
2023/04/01 04:11:49;;;;;;;9.07;5.72;;;;;;;13.34;52.05;98636.28;4994544;28;20034;-78
2023/04/01 04:14:14;;;;;;;8.60;5.93;;;;;;;12.94;52.13;98596.81;5009578;28;20132;-78
2023/04/01 04:16:40;;;;;;;8.50;6.15;;;;;;;12.95;52.79;98614.34;4994692;28;20499;-78
2023/04/01 04:19:05;;;;;;;9.90;6.03;;;;;;;13.17;52.28;98645.81;4994321;28;20057;-78
2023/04/01 04:21:31;;;;;;;10.18;6.63;;;;;;;12.94;52.65;98620.69;4994568;28;20061;-78
2023/04/01 04:23:57;;;;;;;7.78;6.53;;;;;;;13.10;52.55;98660.91;4994741;28;20419;-78
2023/04/01 04:26:23;;;;;;;11.02;7.03;;;;;;;13.03;52.85;98659.13;4994610;28;20030;-78
2023/04/01 04:28:48;;;;;;;12.05;7.13;;;;;;;12.92;52.65;98640.47;4994490;28;20521;-78
2023/04/01 04:31:19;;;;;;;10.48;6.50;;;;;;;12.98;52.97;98666.91;4994174;28;20026;-78
2023/04/01 04:33:45;;;;;;;9.88;6.05;;;;;;;12.95;52.88;98667.34;4994170;28;20104;-78
2023/04/01 04:36:10;;;;;;;25.73;17.33;;;;;;;12.85;53.00;98645.81;4994093;28;20054;-78
2023/04/01 04:38:35;;;;;;;19.10;12.77;;;;;;;12.77;52.83;98626.72;4994030;28;20026;-78
2023/04/01 04:41:01;;;;;;;15.40;11.00;;;;;;;12.86;53.48;98649.28;4994186;28;20093;-78
2023/04/01 04:43:26;;;;;;;13.50;9.93;;;;;;;12.73;53.32;98629.78;4993956;28;20496;-78
2023/04/01 04:45:52;;;;;;;13.65;9.75;;;;;;;12.88;53.23;98652.53;4993844;28;20053;-78
2023/04/01 04:48:20;;;;;;;9.23;8.02;;;;;;;12.31;53.15;98564.25;4992527;28;20093;-78
2023/04/01 04:50:49;;;;;;;10.77;7.45;;;;;;;12.89;53.47;98657.59;4993668;28;20030;-78
2023/04/01 04:53:17;;;;;;;10.98;8.35;;;;;;;12.88;53.61;98652.53;4993727;28;20089;-78
2023/04/01 04:55:44;;;;;;;13.30;9.68;;;;;;;12.47;53.15;98582.28;4993741;28;20092;-78
2023/04/01 04:58:09;;;;;;;14.57;11.27;;;;;;;12.92;53.58;98653.72;4993605;28;20109;-78
2023/04/01 05:00:35;;;;;;;17.75;13.88;;;;;;;12.43;53.54;98570.50;4993447;28;20472;-78
2023/04/01 05:03:00;;;;;;;15.90;12.35;;;;;;;12.97;53.27;98654.69;4993550;28;20472;-78
2023/04/01 05:05:25;;;;;;;16.48;12.07;;;;;;;12.58;53.36;98583.44;5008307;28;20023;-78
2023/04/01 05:07:51;;;;;;;17.67;11.65;;;;;;;12.94;53.04;98631.28;5008465;28;20030;-78
2023/04/01 05:10:16;;;;;;;15.80;9.48;;;;;;;12.94;52.85;98625.16;4993429;28;20089;-78
2023/04/01 05:12:42;;;;;;;18.95;9.98;;;;;;;12.78;52.89;98600.00;4993505;28;20038;-78
2023/04/01 05:15:08;;;;;;;13.25;8.65;;;;;;;12.82;53.50;98595.09;4993315;28;20061;-78
2023/04/01 05:17:33;;;;;;;15.85;9.70;;;;;;;12.80;53.53;98590.00;4993234;28;20458;-78
2023/04/01 05:19:59;;;;;;;13.98;8.75;;;;;;;12.83;53.43;98592.22;4993337;28;20061;-78
2023/04/01 05:22:25;;;;;;;17.20;9.90;;;;;;;12.99;53.21;98618.19;4993352;28;20522;-78
2023/04/01 05:24:50;;;;;;;12.50;8.43;;;;;;;12.91;53.70;98615.81;4993035;28;20415;-78
2023/04/01 05:27:16;;;;;;;14.27;9.77;;;;;;;12.97;53.42;98620.25;4992882;28;20033;-78
2023/04/01 05:29:41;;;;;;;11.18;8.48;;;;;;;12.81;53.50;98612.00;4992789;28;20041;-78
2023/04/01 05:32:07;;;;;;;12.48;8.20;;;;;;;12.80;53.32;98600.63;4992965;28;20026;-78
2023/04/01 05:34:32;;;;;;;13.93;7.72;;;;;;;12.73;53.65;98605.16;4993426;28;20515;-78
2023/04/01 05:36:58;;;;;;;10.82;7.40;;;;;;;12.85;53.58;98613.22;4993360;28;20015;-79
2023/04/01 05:39:23;;;;;;;11.60;7.55;;;;;;;12.90;54.03;98610.72;4993298;28;20037;-78
2023/04/01 05:41:49;;;;;;;12.23;7.50;;;;;;;12.55;53.43;98552.88;4993096;28;20030;-79
2023/04/01 05:44:14;;;;;;;15.27;8.27;;;;;;;12.56;53.46;98546.56;4993114;28;20054;-78
2023/04/01 05:46:41;;;;;;;18.63;12.20;;;;;;;12.93;53.82;98589.09;4992643;28;20495;-78
2023/04/01 05:49:06;;;;;;;20.80;12.63;;;;;;;12.99;53.48;98590.88;4992609;28;20495;-78
2023/04/01 05:51:31;;;;;;;14.35;9.38;;;;;;;12.05;53.73;98436.38;4992477;28;20032;-78
2023/04/01 05:53:57;;;;;;;14.77;11.10;;;;;;;12.99;53.34;98575.78;4992523;28;20030;-78
2023/04/01 05:56:22;;;;;;;16.50;12.75;;;;;;;13.25;53.47;98617.19;4992559;28;20029;-78
2023/04/01 05:58:52;;;;;;;14.77;8.63;;;;;;;13.21;53.17;98594.78;4992583;28;20213;-78
2023/04/01 06:01:18;;;;;;;14.10;9.10;;;;;;;13.39;53.26;98614.44;4992424;28;20443;-78
2023/04/01 06:03:44;;;;;;;14.90;8.77;;;;;;;13.49;52.89;98614.75;4992515;28;20023;-78
2023/04/01 06:06:36;;;;;;;12.45;9.52;;;;;;;13.61;53.41;98627.06;4992338;28;20036;-78
2023/04/01 06:09:18;;;;;;;13.85;8.65;;;;;;;13.72;52.94;98622.06;4989976;28;20049;-78
2023/04/01 06:12:11;;;;;;;14.57;8.05;;;;;;;13.80;53.01;98611.16;5007381;28;20030;-78
2023/04/01 06:15:10;;;;;;;10.52;8.48;;;;;;;13.97;52.72;98612.19;4992287;28;20026;-78
2023/04/01 06:18:28;;;;;;;10.27;7.68;;;;;;;14.11;52.71;98618.94;5006571;28;20026;-78
2023/04/01 06:21:12;;;;;;;10.93;7.60;;;;;;;14.22;51.77;98612.09;4984046;28;20038;-78
2023/04/01 06:24:07;;;;;;;9.10;7.10;;;;;;;14.26;52.73;98608.78;4992181;28;20500;-78
2023/04/01 06:26:36;;;;;;;12.40;6.82;;;;;;;14.38;52.26;98611.47;5006985;28;20064;-78
2023/04/01 06:29:27;;;;;;;12.73;7.88;;;;;;;14.48;52.08;98598.50;4991942;28;20034;-78
2023/04/01 06:32:31;;;;;;;9.48;6.70;;;;;;;14.56;52.12;98590.19;4991919;28;20550;-78
2023/04/01 06:35:33;;;;;;;11.85;6.13;;;;;;;14.63;51.95;98582.94;4990813;28;20105;-78
2023/04/01 06:38:24;;;;;;;9.35;5.80;;;;;;;14.73;51.91;98585.03;4992050;28;20121;-78
2023/04/01 06:40:57;;;;;;;8.80;6.18;;;;;;;14.81;51.86;98573.28;4990630;28;20022;-78
2023/04/01 06:43:46;;;;;;;13.02;6.90;;;;;;;14.86;51.49;98568.91;4991940;28;20037;-78
2023/04/01 06:46:34;;;;;;;11.77;6.95;;;;;;;14.97;51.19;98558.53;4991720;28;20647;-78
2023/04/01 06:49:20;;;;;;;9.43;6.63;;;;;;;15.07;51.06;98543.63;4989162;28;20138;-79
2023/04/01 06:51:56;;;;;;;16.58;7.90;;;;;;;15.15;51.04;98543.28;4991267;28;20495;-78
2023/04/01 06:54:30;;;;;;;13.13;7.65;;;;;;;14.32;50.73;98400.75;4991686;28;20088;-78
2023/04/01 06:57:02;;;;;;;12.32;7.82;;;;;;;14.53;50.45;98417.19;4991880;28;20484;-78
2023/04/01 06:59:34;;;;;;;14.90;8.13;;;;;;;15.38;50.38;98547.75;5006762;28;20033;-78
2023/04/01 07:02:09;;;;;;;15.15;8.77;;;;;;;15.48;50.36;98557.81;4992269;28;20026;-78
2023/04/01 07:04:40;;;;;;;14.20;8.25;;;;;;;14.70;50.55;98417.31;4992081;28;20062;-78
2023/04/01 07:07:16;;;;;;;13.18;9.20;;;;;;;15.48;50.22;98523.22;4992010;28;20035;-78
2023/04/01 07:09:49;;;;;;;16.08;9.43;;;;;;;15.76;50.10;98547.28;4992196;28;20531;-78
2023/04/01 07:12:35;;;;;;;15.55;8.25;;;;;;;15.88;50.02;98534.75;4991947;28;20022;-78
2023/04/01 07:15:16;;;;;;;15.80;9.55;;;;;;;15.96;50.28;98533.56;5006962;28;20113;-78
2023/04/01 07:17:43;;;;;;;14.27;9.73;;;;;;;15.67;49.96;98466.22;4991481;28;20117;-78
2023/04/01 07:20:12;;;;;;;25.33;11.77;;;;;;;16.15;50.03;98526.19;4991626;28;20101;-78
2023/04/01 07:22:47;;;;;;;18.50;12.20;;;;;;;16.27;50.17;98524.28;4991647;28;20036;-78
2023/04/01 07:25:38;;;;;;;15.82;10.13;;;;;;;16.34;50.10;98527.59;4991325;28;20085;-78
2023/04/01 07:28:11;;;;;;;17.73;9.52;;;;;;;16.39;49.88;98519.72;4990297;28;20046;-78
2023/04/01 07:31:01;;;;;;;13.60;9.65;;;;;;;16.41;50.13;98506.16;5010135;28;20482;-78
2023/04/01 07:33:26;;;;;;;15.85;10.27;;;;;;;16.43;50.47;98498.75;4994936;28;20030;-78
2023/04/01 07:36:21;;;;;;;15.48;10.60;;;;;;;16.47;51.62;98500.69;4994872;28;20030;-78
2023/04/01 07:38:52;;;;;;;16.35;5.75;;;;;;;16.55;51.51;98490.66;4995056;28;20030;-78
2023/04/01 07:41:27;;;;;;;16.05;5.38;;;;;;;16.63;52.19;98479.59;4994829;28;20026;-78
2023/04/01 07:44:07;;;;;;;15.50;5.10;;;;;;;16.74;52.81;98476.06;4994854;28;20090;-78
2023/04/01 07:46:51;;;;;;;14.32;4.60;;;;;;;16.86;53.18;98471.44;4995422;28;20026;-78
2023/04/01 07:49:39;;;;;;;10.20;4.30;;;;;;;16.87;53.46;98473.06;4995483;28;20030;-78
2023/04/01 07:52:16;;;;;;;14.75;4.70;;;;;;;16.25;54.35;98361.25;4995348;28;20033;-78
2023/04/01 07:55:10;;;;;;;12.40;4.53;;;;;;;16.88;53.42;98440.03;4993757;28;20030;-78
2023/04/01 07:58:00;;;;;;;10.48;3.92;;;;;;;17.22;53.13;98466.63;4992710;28;20061;-78
2023/04/01 08:00:51;;;;;;;12.55;4.15;;;;;;;17.26;53.17;98433.06;4995019;28;20047;-78
2023/04/01 08:03:25;;;;;;;13.13;4.43;;;;;;;17.45;52.93;98440.50;4995218;28;20080;-78
2023/04/01 08:06:05;;;;;;;11.80;4.07;;;;;;;16.63;52.91;98303.72;5009842;28;20034;-78
2023/04/01 08:08:52;;;;;;;12.23;4.30;;;;;;;17.66;52.55;98446.06;4995183;28;20026;-78
2023/04/01 08:11:30;;;;;;;12.02;4.03;;;;;;;17.69;52.25;98446.41;4994819;28;20027;-78
2023/04/01 08:14:10;;;;;;;9.43;4.05;;;;;;;17.75;51.98;98420.56;4994970;28;20030;-78
2023/04/01 08:16:41;;;;;;;15.73;5.40;;;;;;;17.90;51.84;98426.09;4994413;28;20030;-78
2023/04/01 08:19:28;;;;;;;13.07;4.35;;;;;;;17.99;51.65;98402.41;4994432;28;20460;-77
2023/04/01 08:21:58;;;;;;;13.13;3.95;;;;;;;18.10;51.13;98398.75;5009412;28;20038;-78
2023/04/01 08:24:59;;;;;;;10.88;4.20;;;;;;;18.09;51.11;98407.84;4994256;28;20026;-77
2023/04/01 08:27:33;;;;;;;9.63;3.65;;;;;;;17.95;51.13;98371.94;4982710;28;20042;-78
2023/04/01 08:30:40;;;;;;;10.18;3.75;;;;;;;18.12;50.89;98383.28;4994175;28;20026;-78
2023/04/01 08:33:18;;;;;;;13.45;4.05;;;;;;;18.38;50.53;98401.13;4991443;28;20108;-77
2023/04/01 08:36:03;;;;;;;15.98;4.43;;;;;;;17.62;50.17;98280.28;4994065;28;20057;-77
2023/04/01 08:38:39;;;;;;;12.98;4.40;;;;;;;17.76;50.29;98289.50;4994161;28;20026;-78
2023/04/01 08:41:28;;;;;;;8.18;3.83;;;;;;;18.16;50.63;98362.22;4993419;28;20030;-77
2023/04/01 08:44:26;;;;;;;13.57;4.15;;;;;;;18.35;50.36;98396.28;4993879;28;20108;-78
2023/04/01 08:47:09;;;;;;;13.32;4.38;;;;;;;18.37;50.13;98388.00;4993230;28;20073;-78
2023/04/01 08:49:56;;;;;;;11.27;3.45;;;;;;;18.26;50.28;98392.47;4993682;28;20468;-78
2023/04/01 08:52:45;;;;;;;10.60;3.75;;;;;;;17.48;50.24;98263.88;4993569;28;20495;-78
2023/04/01 08:55:38;;;;;;;15.93;4.65;;;;;;;18.18;50.20;98370.78;4993602;28;20458;-78
2023/04/01 08:58:17;;;;;;;10.90;3.88;;;;;;;18.17;50.42;98372.63;4993429;28;20145;-78
2023/04/01 09:00:54;;;;;;;12.80;3.80;;;;;;;18.19;50.49;98370.53;5008306;28;20046;-77
2023/04/01 09:03:37;;;;;;;19.15;5.47;;;;;;;18.15;50.72;98376.63;4993486;28;20081;-77
2023/04/01 09:06:36;;;;;;;11.15;4.28;;;;;;;18.14;50.87;98357.13;5008314;28;20483;-77
2023/04/01 09:09:19;;;;;;;10.10;3.90;;;;;;;18.18;50.64;98358.22;4993595;28;20030;-77
2023/04/01 09:12:10;;;;;;;11.00;4.10;;;;;;;17.69;50.68;98274.75;4993504;28;20153;-77
2023/04/01 09:14:56;;;;;;;14.52;3.78;;;;;;;18.26;50.54;98347.06;4990634;28;20049;-77
2023/04/01 09:17:49;;;;;;;11.57;4.47;;;;;;;18.37;50.40;98324.69;4993004;28;20034;-78
2023/04/01 09:20:30;;;;;;;14.25;4.78;;;;;;;18.55;49.94;98315.44;4993308;28;20466;-77
2023/04/01 09:23:37;;;;;;;9.07;3.90;;;;;;;18.58;49.76;98314.09;5008337;28;20057;-77
2023/04/01 09:26:21;;;;;;;9.02;3.80;;;;;;;18.69;49.55;98297.09;4971662;28;20035;-76
2023/04/01 09:29:20;;;;;;;14.32;4.35;;;;;;;18.67;49.05;98284.00;4992277;28;20078;-77
2023/04/01 09:31:57;;;;;;;17.15;4.45;;;;;;;18.92;48.62;98306.56;4992770;28;20088;-77
2023/04/01 09:34:52;;;;;;;16.65;4.95;;;;;;;18.83;48.49;98268.81;4992939;28;20026;-77
2023/04/01 09:37:21;;;;;;;12.07;3.83;;;;;;;19.03;48.43;98282.25;4992718;28;20022;-77
2023/04/01 09:40:13;;;;;;;16.30;5.00;;;;;;;19.12;48.66;98287.09;4992700;28;20030;-77
2023/04/01 09:43:02;;;;;;;15.25;4.25;;;;;;;19.16;48.11;98288.16;4992694;28;20097;-77
2023/04/01 09:45:39;;;;;;;16.30;4.60;;;;;;;19.21;47.71;98286.31;4993069;28;20180;-77
2023/04/01 09:48:19;;;;;;;12.60;4.40;;;;;;;19.24;46.88;98274.28;4993344;28;20026;-77
2023/04/01 09:51:03;;;;;;;11.52;4.40;;;;;;;19.29;46.83;98267.06;4992897;28;20034;-77
2023/04/01 09:53:32;;;;;;;9.50;3.42;;;;;;;19.36;46.67;98264.94;4991515;28;20093;-77
2023/04/01 09:56:19;;;;;;;11.82;4.30;;;;;;;19.33;46.37;98257.47;4993230;28;20026;-77
2023/04/01 09:59:10;;;;;;;14.90;3.72;;;;;;;19.30;46.33;98251.81;4992978;28;20033;-77
2023/04/01 10:01:57;;;;;;;9.50;3.20;;;;;;;19.38;45.89;98240.59;5007449;28;20401;-77
2023/04/01 10:04:41;;;;;;;6.07;3.17;;;;;;;19.39;45.76;98233.38;4992325;28;20522;-77
2023/04/01 10:07:44;;;;;;;8.00;2.90;;;;;;;19.42;45.54;98228.28;4992134;28;20054;-77
2023/04/01 10:10:48;;;;;;;6.80;3.53;;;;;;;19.42;44.64;98217.59;4980483;28;20042;-77
2023/04/01 10:13:51;;;;;;;12.68;3.88;;;;;;;19.43;44.97;98218.38;4991640;28;20026;-77
2023/04/01 10:16:35;;;;;;;7.40;3.13;;;;;;;19.47;44.96;98214.09;4987829;28;20404;-77
2023/04/01 10:19:32;;;;;;;13.93;6.10;;;;;;;19.53;44.80;98205.81;5007085;28;20026;-77
2023/04/01 10:22:16;;;;;;;7.90;2.80;;;;;;;19.48;44.62;98194.28;5006812;28;20419;-78
2023/04/01 10:24:45;;;;;;;11.15;3.45;;;;;;;19.53;44.40;98197.78;4992112;28;20040;-77
2023/04/01 10:27:48;;;;;;;10.80;4.03;;;;;;;19.59;44.07;98204.75;4992039;28;20097;-78
2023/04/01 10:30:29;;;;;;;9.35;3.47;;;;;;;19.51;43.93;98178.50;4991848;28;20397;-77
2023/04/01 10:33:15;;;;;;;10.77;3.85;;;;;;;19.45;43.91;98184.13;4991890;28;20026;-77
2023/04/01 10:35:59;;;;;;;8.70;3.20;;;;;;;19.46;43.71;98197.22;4991853;28;20018;-78
2023/04/01 10:38:52;;;;;;;9.02;3.85;;;;;;;19.48;44.03;98187.06;4991939;28;20026;-78
2023/04/01 10:41:17;;;;;;;10.43;3.67;;;;;;;19.52;44.14;98195.34;4991856;28;20021;-77
2023/04/01 10:43:43;;;;;;;31.83;4.43;;;;;;;19.78;43.77;98185.44;4991865;28;20027;-77
2023/04/01 10:46:21;;;;;;;13.77;2.97;;;;;;;19.96;43.52;98208.97;4991718;28;20384;-77
2023/04/01 10:49:07;;;;;;;13.38;3.67;;;;;;;20.50;42.52;98182.31;4991840;28;20085;-77
2023/04/01 10:51:45;;;;;;;10.60;3.38;;;;;;;20.87;41.83;98175.72;5006893;28;20026;-77
2023/04/01 10:54:18;;;;;;;10.13;3.85;;;;;;;21.11;41.33;98178.50;4991703;28;20026;-77
2023/04/01 10:56:57;;;;;;;11.02;3.97;;;;;;;20.82;41.54;98156.97;4991894;28;20046;-77
2023/04/01 10:59:55;;;;;;;17.88;4.78;;;;;;;20.75;41.88;98172.53;4991652;28;20521;-77
2023/04/01 11:03:01;;;;;;;15.52;6.13;;;;;;;20.49;42.46;98166.50;4991926;28;20026;-78
2023/04/01 11:05:48;;;;;;;14.27;5.35;;;;;;;20.29;42.80;98170.06;4994283;28;20050;-77
2023/04/01 11:08:37;;;;;;;10.43;3.58;;;;;;;20.18;43.09;98173.84;4995552;28;20105;-77
2023/04/01 11:11:34;;;;;;;15.18;3.88;;;;;;;20.11;43.39;98178.69;5010376;28;20060;-77
2023/04/01 11:14:13;;;;;;;14.80;7.40;;;;;;;20.03;43.51;98166.63;4995433;28;20115;-77
2023/04/01 11:16:57;;;;;;;21.40;5.80;;;;;;;19.93;43.84;98155.94;4994164;28;20030;-77
2023/04/01 11:19:35;;;;;;;13.98;4.55;;;;;;;19.81;44.15;98153.56;4995516;28;20133;-77
2023/04/01 11:22:35;;;;;;;11.57;4.65;;;;;;;19.77;43.67;98162.41;4995369;28;20025;-77
2023/04/01 11:25:38;;;;;;;12.40;4.03;;;;;;;19.67;43.13;98158.69;5010288;28;20022;-77
2023/04/01 11:28:12;;;;;;;13.45;4.00;;;;;;;19.59;43.07;98155.75;5010129;28;20045;-77
2023/04/01 11:30:54;;;;;;;11.40;4.28;;;;;;;18.59;42.85;98006.47;4990651;28;20037;-77
2023/04/01 11:33:26;;;;;;;11.23;3.85;;;;;;;19.47;42.66;98149.84;4993436;28;20105;-77
2023/04/01 11:36:10;;;;;;;16.05;3.97;;;;;;;18.68;42.77;98036.16;4993677;28;20201;-77
2023/04/01 11:39:04;;;;;;;14.65;4.90;;;;;;;19.25;42.62;98136.72;4993312;28;20414;-77
2023/04/01 11:41:33;;;;;;;10.98;3.83;;;;;;;19.19;42.93;98127.91;4993512;28;20492;-77
2023/04/01 11:44:14;;;;;;;13.90;4.15;;;;;;;19.17;42.95;98126.56;4993048;28;20482;-77
2023/04/01 11:46:49;;;;;;;17.15;5.75;;;;;;;19.17;42.98;98116.66;4995932;28;20026;-77
2023/04/01 11:49:40;;;;;;;15.00;4.90;;;;;;;19.18;42.90;98109.44;4993457;28;20022;-77
2023/04/01 11:52:17;;;;;;;14.55;4.68;;;;;;;19.17;43.25;98118.53;4992412;28;20026;-77
2023/04/01 11:54:42;;;;;;;15.68;4.15;;;;;;;19.18;43.41;98096.88;4993435;28;20026;-77
2023/04/01 11:57:28;;;;;;;19.17;4.63;;;;;;;19.10;43.89;98107.31;4994967;28;20538;-78
2023/04/01 11:59:59;;;;;;;16.65;7.22;;;;;;;19.13;43.88;98091.50;4992268;28;20050;-77
2023/04/01 12:03:06;;;;;;;12.07;4.95;;;;;;;19.02;44.09;98080.03;4994729;28;20053;-77
2023/04/01 12:05:52;;;;;;;16.95;5.32;;;;;;;19.11;44.20;98090.19;5007662;28;20531;-77